createdAt,value
2018-01-02T00:02:21.229Z,99533
2018-01-02T00:04:49.307Z,99532
2018-01-02T00:07:17.414Z,99535
2018-01-02T00:09:46.273Z,99539
2018-01-02T00:12:14.347Z,99536
2018-01-02T00:14:42.438Z,99528
2018-01-02T00:17:11.123Z,99533
2018-01-02T00:19:40.371Z,99533
2018-01-02T00:22:08.455Z,99536
2018-01-02T00:24:36.527Z,99532
2018-01-02T00:27:04.600Z,99545
2018-01-02T00:29:32.679Z,99534
2018-01-02T00:32:01.427Z,99536
2018-01-02T00:34:29.503Z,99544
2018-01-02T00:36:57.567Z,99537
2018-01-02T00:39:25.637Z,99534
2018-01-02T00:41:53.767Z,99529
2018-01-02T00:44:21.853Z,99532
2018-01-02T00:46:50.499Z,99529
2018-01-02T00:49:18.587Z,99531
2018-01-02T00:51:46.655Z,99533
2018-01-02T00:54:15.382Z,99536
2018-01-02T00:56:43.516Z,99541
2018-01-02T00:59:11.583Z,99543
2018-01-02T01:01:39.754Z,99540
2018-01-02T01:04:07.827Z,99541
2018-01-02T01:06:35.905Z,99536
2018-01-02T01:09:03.974Z,99538
2018-01-02T01:11:32.146Z,99532
2018-01-02T01:14:00.315Z,99535
2018-01-02T01:16:28.386Z,99536
2018-01-02T01:18:56.454Z,99527
2018-01-02T01:21:24.525Z,99529
2018-01-02T01:23:52.597Z,99523
2018-01-02T01:26:20.676Z,99532
2018-01-02T01:28:48.738Z,99543
2018-01-02T01:31:16.990Z,99531
2018-01-02T01:33:45.071Z,99530
2018-01-02T01:36:13.819Z,99531
2018-01-02T01:38:41.893Z,99526
2018-01-02T01:41:10.018Z,99530
2018-01-02T01:43:38.086Z,99524
2018-01-02T01:46:06.509Z,99526
2018-01-02T01:48:34.638Z,99534
2018-01-02T01:51:02.694Z,99526
2018-01-02T01:53:30.761Z,99528
2018-01-02T01:55:58.842Z,99523
2018-01-02T01:58:26.928Z,99522
2018-01-02T02:00:55.088Z,99523
2018-01-02T02:03:23.266Z,99523
2018-01-02T02:05:51.324Z,99508
2018-01-02T02:08:19.414Z,99532
2018-01-02T02:10:47.478Z,99514
2018-01-02T02:13:15.537Z,99508
2018-01-02T02:15:43.609Z,99510
2018-01-02T02:18:11.678Z,99492
2018-01-02T02:20:39.742Z,99498
2018-01-02T02:23:07.822Z,99494
2018-01-02T02:25:35.894Z,99497
2018-01-02T02:28:03.970Z,99488
2018-01-02T02:30:32.038Z,99486
2018-01-02T02:33:00.111Z,99486
2018-01-02T02:35:28.199Z,99479
2018-01-02T02:37:57.031Z,99474
2018-01-02T02:40:25.239Z,99478
2018-01-02T02:42:53.312Z,99469
2018-01-02T02:45:21.380Z,99469
2018-01-02T02:47:49.457Z,99468
2018-01-02T02:50:18.107Z,99459
2018-01-02T02:52:46.206Z,99461
2018-01-02T02:55:14.484Z,99452
2018-01-02T02:57:42.546Z,99447
2018-01-02T03:00:10.630Z,99455
2018-01-02T03:02:38.706Z,99440
2018-01-02T03:05:07.094Z,99445
2018-01-02T03:07:35.851Z,99431
2018-01-02T03:10:03.930Z,99436
2018-01-02T03:12:32.018Z,99440
2018-01-02T03:15:00.855Z,99435
2018-01-02T03:17:28.909Z,99439
2018-01-02T03:19:56.994Z,99434
2018-01-02T03:22:25.882Z,99437
2018-01-02T03:24:53.950Z,99445
2018-01-02T03:27:22.020Z,99436
2018-01-02T03:29:50.130Z,99437
2018-01-02T03:32:18.223Z,99435
2018-01-02T03:34:46.278Z,99438
2018-01-02T03:37:14.342Z,99437
2018-01-02T03:39:42.418Z,99440
2018-01-02T03:42:10.494Z,99438
2018-01-02T03:44:38.573Z,99437
2018-01-02T03:47:07.411Z,99441
2018-01-02T03:49:35.525Z,99441
2018-01-02T03:52:04.374Z,99440
2018-01-02T03:54:32.442Z,99437
2018-01-02T03:57:00.519Z,99434
2018-01-02T03:59:28.592Z,99443
2018-01-02T04:01:56.655Z,99438
2018-01-02T04:04:26.291Z,99441
2018-01-02T04:06:54.468Z,99439
2018-01-02T04:09:22.530Z,99446
2018-01-02T04:11:50.602Z,99439
2018-01-02T04:14:18.667Z,99449
2018-01-02T04:16:47.144Z,99441
2018-01-02T04:19:15.506Z,99441
2018-01-02T04:21:43.596Z,99449
2018-01-02T04:24:12.364Z,99445
2018-01-02T04:26:40.428Z,99445
2018-01-02T04:29:08.502Z,99441
2018-01-02T04:31:36.598Z,99444
2018-01-02T04:34:04.667Z,99445
2018-01-02T04:36:32.746Z,99441
2018-01-02T04:39:00.919Z,99445
2018-01-02T04:41:28.982Z,99444
2018-01-02T04:43:57.256Z,99451
2018-01-02T04:46:25.323Z,99446
2018-01-02T04:48:53.390Z,99444
2018-01-02T04:51:21.454Z,99461
2018-01-02T04:53:49.854Z,99452
2018-01-02T04:56:17.914Z,99454
2018-01-02T04:58:45.976Z,99457
2018-01-02T05:01:14.045Z,99461
2018-01-02T05:03:42.124Z,99465
2018-01-02T05:06:10.194Z,99462
2018-01-02T05:08:38.862Z,99468
2018-01-02T05:11:06.933Z,99465
2018-01-02T05:13:35.001Z,99471
2018-01-02T05:16:03.071Z,99467
2018-01-02T05:18:31.143Z,99474
2018-01-02T05:20:59.209Z,99476
2018-01-02T05:23:27.294Z,99476
2018-01-02T05:25:55.393Z,99477
2018-01-02T05:28:23.478Z,99470
2018-01-02T05:30:52.322Z,99477
2018-01-02T05:33:20.391Z,99479
2018-01-02T05:35:49.186Z,99481
2018-01-02T05:38:18.082Z,99487
2018-01-02T05:40:46.575Z,99493
2018-01-02T05:43:15.314Z,99491
2018-01-02T05:45:43.395Z,99502
2018-01-02T05:48:11.472Z,99506
2018-01-02T05:50:39.530Z,99512
2018-01-02T05:53:07.643Z,99518
2018-01-02T05:55:35.741Z,99524
2018-01-02T05:58:04.588Z,99526
2018-01-02T06:00:32.691Z,99528
2018-01-02T06:03:01.543Z,99530
2018-01-02T06:05:29.906Z,99539
2018-01-02T06:07:58.001Z,99538
2018-01-02T06:10:26.065Z,99551
2018-01-02T06:12:54.140Z,99553
2018-01-02T06:15:22.210Z,99553
2018-01-02T06:17:50.274Z,99561
2018-01-02T06:20:18.350Z,99574
2018-01-02T06:22:46.414Z,99581
2018-01-02T06:25:14.495Z,99586
2018-01-02T06:27:42.570Z,99592
2018-01-02T06:30:10.647Z,99600
2018-01-02T06:32:38.723Z,99605
2018-01-02T06:35:06.889Z,99610
2018-01-02T06:37:34.954Z,99614
2018-01-02T06:40:03.135Z,99617
2018-01-02T06:42:31.202Z,99624
2018-01-02T06:44:59.274Z,99637
2018-01-02T06:47:27.441Z,99645
2018-01-02T06:49:55.600Z,99642
2018-01-02T06:52:23.670Z,99652
2018-01-02T06:54:51.748Z,99654
2018-01-02T06:57:19.818Z,99660
2018-01-02T06:59:47.890Z,99662
2018-01-02T07:02:15.965Z,99678
2018-01-02T07:04:44.038Z,99682
2018-01-02T07:07:12.826Z,99699
2018-01-02T07:09:40.900Z,99707
2018-01-02T07:12:08.970Z,99715
2018-01-02T07:14:37.034Z,99718
2018-01-02T07:17:05.098Z,99724
2018-01-02T07:19:33.278Z,99725
2018-01-02T07:22:01.974Z,99735
2018-01-02T07:24:30.161Z,99743
2018-01-02T07:26:58.214Z,99754
2018-01-02T07:29:26.282Z,99752
2018-01-02T07:31:54.347Z,99762
2018-01-02T07:34:22.419Z,99762
2018-01-02T07:36:50.483Z,99773
2018-01-02T07:39:18.662Z,99782
2018-01-02T07:41:46.723Z,99787
2018-01-02T07:44:14.793Z,99785
2018-01-02T07:46:43.443Z,99794
2018-01-02T07:49:11.508Z,99796
2018-01-02T07:51:39.571Z,99801
2018-01-02T07:54:07.695Z,99807
2018-01-02T07:56:35.872Z,99806
2018-01-02T07:59:03.939Z,99823
2018-01-02T08:01:32.005Z,99823
2018-01-02T08:04:00.071Z,99826
2018-01-02T08:06:28.157Z,99832
2018-01-02T08:08:56.223Z,99850
2018-01-02T08:11:24.295Z,99859
2018-01-02T08:13:52.354Z,99859
2018-01-02T08:16:20.418Z,99858
2018-01-02T08:18:48.486Z,99860
2018-01-02T08:21:16.578Z,99860
2018-01-02T08:23:44.750Z,99871
2018-01-02T08:26:12.824Z,99871
2018-01-02T08:28:40.991Z,99877
2018-01-02T08:31:09.060Z,99887
2018-01-02T08:33:37.230Z,99891
2018-01-02T08:36:05.879Z,99898
2018-01-02T08:38:33.949Z,99904
2018-01-02T08:41:02.011Z,99912
2018-01-02T08:43:30.082Z,99915
2018-01-02T08:45:58.138Z,99929
2018-01-02T08:48:26.214Z,99937
2018-01-02T08:50:54.278Z,99946
2018-01-02T08:53:23.106Z,99941
2018-01-02T08:55:51.171Z,99953
2018-01-02T08:58:19.244Z,99950
2018-01-02T09:00:47.315Z,99957
2018-01-02T09:03:15.375Z,99964
2018-01-02T09:05:43.484Z,99961
2018-01-02T09:08:11.555Z,99968
2018-01-02T09:10:39.632Z,99986
2018-01-02T09:13:20.386Z,99988
2018-01-02T09:15:48.449Z,99992
2018-01-02T09:18:16.513Z,99994
2018-01-02T09:20:44.595Z,99996
2018-01-02T09:23:12.667Z,100003
2018-01-02T09:25:40.742Z,100013
2018-01-02T09:28:08.818Z,100005
2018-01-02T09:30:36.898Z,100007
2018-01-02T09:33:05.160Z,100013
2018-01-02T09:35:33.230Z,100023
2018-01-02T09:38:01.406Z,100021
2018-01-02T09:40:29.486Z,100016
2018-01-02T09:42:57.562Z,100018
2018-01-02T09:45:26.238Z,100019
2018-01-02T09:47:55.098Z,100040
2018-01-02T09:50:23.174Z,100033
2018-01-02T09:52:51.243Z,100056
2018-01-02T09:55:19.335Z,100054
2018-01-02T09:57:47.404Z,100049
2018-01-02T10:00:15.927Z,100054
2018-01-02T10:02:44.007Z,100056
2018-01-02T10:05:12.124Z,100048
2018-01-02T10:07:40.749Z,100051
2018-01-02T10:10:08.885Z,100056
2018-01-02T10:12:37.885Z,100073
2018-01-02T10:15:05.958Z,100063
2018-01-02T10:17:34.040Z,100065
2018-01-02T10:20:02.884Z,100064
2018-01-02T10:22:30.953Z,100073
2018-01-02T10:24:59.036Z,100069
2018-01-02T10:27:27.415Z,100084
2018-01-02T10:29:55.475Z,100087
2018-01-02T10:32:23.564Z,100087
2018-01-02T10:34:51.644Z,100098
2018-01-02T10:37:19.727Z,100089
2018-01-02T10:39:48.558Z,100091
2018-01-02T10:42:16.692Z,100093
2018-01-02T10:44:45.535Z,100092
2018-01-02T10:47:13.613Z,100098
2018-01-02T10:49:41.690Z,100098
2018-01-02T10:52:09.766Z,100100
2018-01-02T10:54:37.863Z,100095
2018-01-02T10:57:06.698Z,100103
2018-01-02T10:59:34.821Z,100113
2018-01-02T11:02:05.171Z,100116
2018-01-02T11:04:33.255Z,100120
2018-01-02T11:07:01.335Z,100114
2018-01-02T11:09:29.483Z,100121
2018-01-02T11:11:58.457Z,100138
2018-01-02T11:14:32.916Z,100125
2018-01-02T11:17:01.462Z,100132
2018-01-02T11:19:30.314Z,100130
2018-01-02T11:21:58.382Z,100135
2018-01-02T11:24:26.462Z,100130
2018-01-02T11:26:54.534Z,100138
2018-01-02T11:29:22.614Z,100144
2018-01-02T11:31:51.459Z,100145
2018-01-02T11:34:19.542Z,100147
2018-01-02T11:36:47.636Z,100147
2018-01-02T11:39:15.702Z,100145
2018-01-02T11:41:43.795Z,100136
2018-01-02T11:44:12.639Z,100153
2018-01-02T11:46:40.715Z,100143
2018-01-02T11:49:08.787Z,100144
2018-01-02T11:51:36.859Z,100148
2018-01-02T11:54:05.277Z,100147
2018-01-02T11:56:34.561Z,100162
2018-01-02T11:59:03.494Z,100155
2018-01-02T12:01:31.664Z,100162
2018-01-02T12:04:00.041Z,100163
2018-01-02T12:06:28.153Z,100167
2018-01-02T12:08:56.269Z,100162
2018-01-02T12:11:25.123Z,100162
2018-01-02T12:13:53.202Z,100161
2018-01-02T12:16:21.281Z,100164
2018-01-02T12:18:50.228Z,100167
2018-01-02T12:21:18.337Z,100163
2018-01-02T12:23:46.425Z,100166
2018-01-02T12:26:15.293Z,100174
2018-01-02T12:28:43.465Z,100174
2018-01-02T12:31:11.542Z,100182
2018-01-02T12:33:39.626Z,100182
2018-01-02T12:36:08.504Z,100184
2018-01-02T12:38:36.590Z,100189
2018-01-02T12:41:05.426Z,100195
2018-01-02T12:43:33.503Z,100194
2018-01-02T12:46:01.580Z,100199
2018-01-02T12:48:29.789Z,100199
2018-01-02T12:50:58.630Z,100204
2018-01-02T12:53:26.718Z,100195
2018-01-02T12:55:54.815Z,100194
2018-01-02T12:58:22.870Z,100210
2018-01-02T13:00:50.957Z,100212
2018-01-02T13:03:19.847Z,100217
2018-01-02T13:05:48.814Z,100222
2018-01-02T13:08:16.884Z,100225
2018-01-02T13:10:44.963Z,100223
2018-01-02T13:13:13.971Z,100236
2018-01-02T13:15:42.040Z,100237
2018-01-02T13:18:10.881Z,100229
2018-01-02T13:20:38.956Z,100233
2018-01-02T13:23:07.754Z,100243
2018-01-02T13:25:35.848Z,100246
2018-01-02T13:28:03.939Z,100235
2018-01-02T13:30:32.781Z,100247
2018-01-02T13:33:01.122Z,100246
2018-01-02T13:35:29.951Z,100260
2018-01-02T13:37:58.930Z,100256
2018-01-02T13:40:27.038Z,100264
2018-01-02T13:42:55.119Z,100256
2018-01-02T13:45:23.327Z,100252
2018-01-02T13:47:51.419Z,100256
2018-01-02T13:50:19.506Z,100265
2018-01-02T13:52:47.600Z,100277
2018-01-02T13:55:15.666Z,100280
2018-01-02T13:57:43.829Z,100281
2018-01-02T14:00:11.931Z,100281
2018-01-02T14:02:40.792Z,100278
2018-01-02T14:05:08.858Z,100277
2018-01-02T14:07:36.929Z,100278
2018-01-02T14:10:05.011Z,100280
2018-01-02T14:12:33.856Z,100285
2018-01-02T14:15:01.931Z,100294
2018-01-02T14:17:30.058Z,100292
2018-01-02T14:19:59.294Z,100293
2018-01-02T14:22:28.535Z,100295
2018-01-02T14:24:57.326Z,100289
2018-01-02T14:27:25.418Z,100302
2018-01-02T14:29:53.488Z,100303
2018-01-02T14:32:22.322Z,100304
2018-01-02T14:34:50.712Z,100303
2018-01-02T14:37:19.190Z,100306
2018-01-02T14:39:47.276Z,100309
2018-01-02T14:42:15.368Z,100312
2018-01-02T14:44:44.227Z,100308
2018-01-02T14:47:12.305Z,100316
2018-01-02T14:49:40.422Z,100308
2018-01-02T14:52:08.551Z,100326
2018-01-02T14:54:36.649Z,100334
2018-01-02T14:57:04.739Z,100322
2018-01-02T14:59:32.811Z,100325
2018-01-02T15:02:00.931Z,100336
2018-01-02T15:04:29.026Z,100336
2018-01-02T15:06:57.867Z,100343
2018-01-02T15:09:25.962Z,100345
2018-01-02T15:11:54.022Z,100351
2018-01-02T15:14:22.107Z,100353
2018-01-02T15:16:50.178Z,100358
2018-01-02T15:19:18.257Z,100365
2018-01-02T15:21:47.100Z,100367
2018-01-02T15:24:15.193Z,100366
2018-01-02T15:26:43.271Z,100365
2018-01-02T15:29:11.338Z,100363
2018-01-02T15:31:39.454Z,100364
2018-01-02T15:34:07.531Z,100378
2018-01-02T15:36:35.687Z,100369
2018-01-02T15:39:04.527Z,100382
2018-01-02T15:41:32.603Z,100373
2018-01-02T15:44:01.087Z,100376
2018-01-02T15:46:29.162Z,100376
2018-01-02T15:48:57.334Z,100374
2018-01-02T15:51:25.494Z,100382
2018-01-02T15:53:53.629Z,100384
2018-01-02T15:56:21.703Z,100386
2018-01-02T15:58:49.774Z,100382
2018-01-02T16:01:17.852Z,100393
2018-01-02T16:03:45.931Z,100388
2018-01-02T16:06:14.001Z,100392
2018-01-02T16:08:42.565Z,100397
2018-01-02T16:11:10.635Z,100398
2018-01-02T16:13:38.711Z,100401
2018-01-02T16:16:06.834Z,100403
2018-01-02T16:18:34.914Z,100405
2018-01-02T16:21:02.990Z,100413
2018-01-02T16:23:31.068Z,100398
2018-01-02T16:25:59.948Z,100402
2018-01-02T16:28:28.017Z,100393
2018-01-02T16:30:56.894Z,100398
2018-01-02T16:33:25.071Z,100398
2018-01-02T16:35:53.655Z,100398
2018-01-02T16:38:21.814Z,100398
2018-01-02T16:40:49.891Z,100398
2018-01-02T16:43:17.967Z,100389
2018-01-02T16:45:46.034Z,100382
2018-01-02T16:48:14.244Z,100392
2018-01-02T16:50:42.352Z,100392
2018-01-02T16:53:10.449Z,100392
2018-01-02T16:55:38.519Z,100386
2018-01-02T16:58:06.590Z,100402
2018-01-02T17:00:34.658Z,100404
2018-01-02T17:03:02.775Z,100392
2018-01-02T17:05:30.852Z,100392
2018-01-02T17:07:59.708Z,100386
2018-01-02T17:10:27.827Z,100392
2018-01-02T17:12:55.911Z,100393
2018-01-02T17:15:23.988Z,100394
2018-01-02T17:17:52.364Z,100406
2018-01-02T17:20:21.223Z,100398
2018-01-02T17:22:49.286Z,100394
2018-01-02T17:25:17.378Z,100405
2018-01-02T17:27:46.223Z,100403
2018-01-02T17:30:15.104Z,100402
2018-01-02T17:32:43.407Z,100394
2018-01-02T17:35:12.243Z,100400
2018-01-02T17:37:40.309Z,100391
2018-01-02T17:40:08.383Z,100395
2018-01-02T17:42:36.462Z,100392
2018-01-02T17:45:04.531Z,100391
2018-01-02T17:47:32.613Z,100396
2018-01-02T17:50:00.783Z,100389
2018-01-02T17:52:28.886Z,100400
2018-01-02T17:54:57.715Z,100399
2018-01-02T17:57:25.787Z,100403
2018-01-02T17:59:54.711Z,100397
2018-01-02T18:02:22.779Z,100414
2018-01-02T18:04:50.945Z,100407
2018-01-02T18:07:19.041Z,100397
2018-01-02T18:09:47.155Z,100408
2018-01-02T18:12:15.222Z,100403
2018-01-02T18:14:43.306Z,100399
2018-01-02T18:17:11.389Z,100401
2018-01-02T18:19:39.479Z,100407
2018-01-02T18:22:07.663Z,100400
2018-01-02T18:24:36.511Z,100399
2018-01-02T18:27:04.616Z,100401
2018-01-02T18:29:32.698Z,100408
2018-01-02T18:32:00.766Z,100404
2018-01-02T18:34:29.623Z,100415
2018-01-02T18:36:57.691Z,100405
2018-01-02T18:39:25.788Z,100406
2018-01-02T18:41:56.713Z,100402
2018-01-02T18:44:24.778Z,100400
2018-01-02T18:46:54.571Z,100399
2018-01-02T18:49:22.686Z,100407
2018-01-02T18:51:51.527Z,100400
2018-01-02T18:54:20.644Z,100407
2018-01-02T18:56:48.727Z,100401
2018-01-02T18:59:16.792Z,100403
2018-01-02T19:01:44.870Z,100402
2018-01-02T19:04:13.444Z,100404
2018-01-02T19:06:41.523Z,100404
2018-01-02T19:09:09.590Z,100407
2018-01-02T19:11:37.770Z,100405
2018-01-02T19:14:05.845Z,100404
2018-01-02T19:16:34.690Z,100400
2018-01-02T19:19:02.774Z,100401
2018-01-02T19:21:30.878Z,100407
2018-01-02T19:23:58.950Z,100396
2018-01-02T19:26:27.820Z,100396
2018-01-02T19:28:55.955Z,100402
2018-01-02T19:31:24.030Z,100408
2018-01-02T19:33:52.559Z,100413
2018-01-02T19:36:21.396Z,100407
2018-01-02T19:38:49.478Z,100393
2018-01-02T19:41:17.583Z,100411
2018-01-02T19:43:46.547Z,100401
2018-01-02T19:46:14.626Z,100396
2018-01-02T19:48:42.706Z,100398
2018-01-02T19:51:10.797Z,100397
2018-01-02T19:53:40.107Z,100395
2018-01-02T19:56:09.837Z,100392
2018-01-02T19:58:37.915Z,100384
2018-01-02T20:01:05.984Z,100385
2018-01-02T20:03:34.057Z,100386
2018-01-02T20:06:02.133Z,100374
2018-01-02T20:08:30.211Z,100372
2018-01-02T20:10:58.311Z,100373
2018-01-02T20:13:26.384Z,100358
2018-01-02T20:15:54.462Z,100355
2018-01-02T20:18:28.069Z,100367
2018-01-02T20:20:56.597Z,100363
2018-01-02T20:23:24.693Z,100361
2018-01-02T20:25:53.163Z,100353
2018-01-02T20:28:21.234Z,100360
2018-01-02T20:30:50.103Z,100360
2018-01-02T20:33:18.180Z,100362
2018-01-02T20:35:46.259Z,100353
2018-01-02T20:38:14.331Z,100349
2018-01-02T20:40:42.427Z,100347
2018-01-02T20:43:10.494Z,100346
2018-01-02T20:45:38.554Z,100350
2018-01-02T20:48:06.866Z,100352
2018-01-02T20:50:35.714Z,100344
2018-01-02T20:53:03.894Z,100344
2018-01-02T20:55:31.969Z,100353
2018-01-02T20:58:00.031Z,100351
2018-01-02T21:00:28.104Z,100357
2018-01-02T21:02:56.231Z,100355
2018-01-02T21:05:24.357Z,100359
2018-01-02T21:07:52.526Z,100357
2018-01-02T21:10:21.003Z,100369
2018-01-02T21:12:49.075Z,100357
2018-01-02T21:15:17.146Z,100352
2018-01-02T21:17:45.334Z,100352
2018-01-02T21:20:13.398Z,100344
2018-01-02T21:22:41.565Z,100343
2018-01-02T21:25:09.635Z,100344
2018-01-02T21:27:37.701Z,100341
2018-01-02T21:30:05.771Z,100338
2018-01-02T21:32:33.839Z,100335
2018-01-02T21:35:01.907Z,100331
2018-01-02T21:37:29.982Z,100330
2018-01-02T21:39:58.055Z,100317
2018-01-02T21:42:26.118Z,100316
2018-01-02T21:44:54.197Z,100308
2018-01-02T21:47:22.956Z,100300
2018-01-02T21:49:51.027Z,100297
2018-01-02T21:52:19.095Z,100295
2018-01-02T21:54:47.208Z,100290
2018-01-02T21:57:15.274Z,100302
2018-01-02T21:59:43.346Z,100283
2018-01-02T22:02:11.403Z,100283
2018-01-02T22:04:39.482Z,100268
2018-01-02T22:07:07.550Z,100285
2018-01-02T22:09:35.639Z,100265
2018-01-02T22:12:03.691Z,100273
2018-01-02T22:14:31.758Z,100268
2018-01-02T22:16:59.826Z,100261
2018-01-02T22:19:27.903Z,100271
2018-01-02T22:21:56.293Z,100265
2018-01-02T22:24:24.453Z,100254
2018-01-02T22:26:52.696Z,100256
2018-01-02T22:29:21.449Z,100239
2018-01-02T22:31:50.304Z,100249
2018-01-02T22:34:18.446Z,100247
2018-01-02T22:36:46.518Z,100242
2018-01-02T22:39:14.578Z,100231
2018-01-02T22:41:42.654Z,100222
2018-01-02T22:44:10.727Z,100228
2018-01-02T22:46:38.837Z,100212
2018-01-02T22:49:07.002Z,100210
2018-01-02T22:51:35.079Z,100200
2018-01-02T22:54:03.139Z,100195
2018-01-02T22:56:31.315Z,100179
2018-01-02T22:58:59.390Z,100179
2018-01-02T23:01:27.455Z,100176
2018-01-02T23:03:55.587Z,100169
2018-01-02T23:06:23.712Z,100167
2018-01-02T23:08:51.775Z,100158
2018-01-02T23:11:19.838Z,100153
2018-01-02T23:13:47.915Z,100161
2018-01-02T23:16:16.000Z,100158
2018-01-02T23:18:44.059Z,100154
2018-01-02T23:21:12.254Z,100139
2018-01-02T23:23:41.098Z,100147
2018-01-02T23:26:09.170Z,100137
2018-01-02T23:28:37.242Z,100117
2018-01-02T23:31:05.311Z,100129
2018-01-02T23:33:33.390Z,100125
2018-01-02T23:36:01.460Z,100117
2018-01-02T23:38:29.540Z,100120
2018-01-02T23:40:57.602Z,100107
2018-01-02T23:43:26.398Z,100097
2018-01-02T23:45:54.468Z,100092
2018-01-02T23:48:22.534Z,100084
2018-01-02T23:50:50.617Z,100085
2018-01-02T23:53:18.686Z,100065
2018-01-02T23:55:46.765Z,100050
2018-01-02T23:58:14.862Z,100051
